createdAt,value
2023-05-06T00:02:01.642Z,12.23
2023-05-06T00:04:28.394Z,12.77
2023-05-06T00:06:56.823Z,12.68
2023-05-06T00:09:26.927Z,12.80
2023-05-06T00:11:53.632Z,11.68
2023-05-06T00:47:49.385Z,10.43
2023-05-06T00:50:16.419Z,10.05
2023-05-06T00:52:43.395Z,9.77
2023-05-06T00:55:10.547Z,9.15
2023-05-06T00:57:38.938Z,10.35
2023-05-06T01:00:07.395Z,10.15
2023-05-06T01:02:46.605Z,9.38
2023-05-06T01:05:14.328Z,9.88
2023-05-06T01:08:04.273Z,11.13
2023-05-06T01:10:49.897Z,9.98
2023-05-06T01:13:27.394Z,9.68
2023-05-06T01:15:56.648Z,9.88
2023-05-06T01:18:26.601Z,10.40
2023-05-06T01:20:55.855Z,10.23
2023-05-06T01:23:22.546Z,10.82
2023-05-06T01:25:49.224Z,10.35
2023-05-06T01:28:16.077Z,10.48
2023-05-06T01:30:59.768Z,10.45
2023-05-06T01:33:55.739Z,10.35
2023-05-06T01:36:33.590Z,10.30
2023-05-06T01:39:09.726Z,10.60
2023-05-06T01:41:39.290Z,10.75
2023-05-06T01:44:08.251Z,11.48
2023-05-06T01:46:36.038Z,11.07
2023-05-06T01:49:06.045Z,11.65
2023-05-06T01:51:34.171Z,10.05
2023-05-06T01:54:01.824Z,11.00
2023-05-06T01:56:32.041Z,10.90
2023-05-06T01:58:59.626Z,10.57
2023-05-06T02:01:26.587Z,10.27
2023-05-06T02:03:53.514Z,11.18
2023-05-06T02:06:20.245Z,9.65
2023-05-06T02:08:47.061Z,11.05
2023-05-06T02:11:13.652Z,11.85
2023-05-06T02:13:40.271Z,11.75
2023-05-06T02:16:07.070Z,10.68
2023-05-06T02:18:33.762Z,11.23
2023-05-06T02:21:01.700Z,11.55
2023-05-06T02:23:28.448Z,11.38
2023-05-06T02:25:55.331Z,10.25
2023-05-06T02:28:21.910Z,11.48
2023-05-06T02:30:48.565Z,12.10
2023-05-06T02:33:15.422Z,10.98
2023-05-06T02:35:42.119Z,11.80
2023-05-06T02:38:08.802Z,11.20
2023-05-06T02:40:35.424Z,11.27
2023-05-06T02:43:02.078Z,11.23
2023-05-06T02:45:28.776Z,11.32
2023-05-06T02:47:55.539Z,12.38
2023-05-06T02:50:22.154Z,11.38
2023-05-06T02:52:48.803Z,12.38
2023-05-06T02:55:15.621Z,11.20
2023-05-06T02:57:42.288Z,11.35
2023-05-06T03:00:11.045Z,11.93
2023-05-06T03:02:37.766Z,11.88
2023-05-06T03:05:04.718Z,13.00
2023-05-06T03:07:31.665Z,12.93
2023-05-06T03:09:58.410Z,13.00
2023-05-06T03:12:25.066Z,12.68
2023-05-06T03:14:51.653Z,13.15
2023-05-06T03:17:18.282Z,12.90
2023-05-06T03:19:44.914Z,12.68
2023-05-06T03:22:11.573Z,11.68
2023-05-06T03:24:38.160Z,11.23
2023-05-06T03:27:04.845Z,11.82
2023-05-06T03:29:31.530Z,13.02
2023-05-06T03:31:58.215Z,12.55
2023-05-06T03:34:24.918Z,13.02
2023-05-06T03:36:51.528Z,12.43
2023-05-06T03:39:18.123Z,12.30
2023-05-06T03:41:44.840Z,13.35
2023-05-06T03:44:11.522Z,13.90
2023-05-06T03:46:39.068Z,11.88
2023-05-06T03:49:05.917Z,12.70
2023-05-06T03:51:32.658Z,12.13
2023-05-06T03:53:59.777Z,13.45
2023-05-06T03:56:26.449Z,12.73
2023-05-06T03:58:54.579Z,12.30
2023-05-06T04:01:21.700Z,12.35
2023-05-06T04:03:48.418Z,12.88
2023-05-06T04:06:15.194Z,12.48
2023-05-06T04:08:41.918Z,12.73
2023-05-06T04:11:08.832Z,12.95
2023-05-06T04:13:35.587Z,13.38
2023-05-06T04:16:02.867Z,12.52
2023-05-06T04:18:30.543Z,13.35
2023-05-06T04:20:57.198Z,13.32
2023-05-06T04:23:23.858Z,13.00
2023-05-06T04:25:50.492Z,12.85
2023-05-06T04:28:17.608Z,12.20
2023-05-06T04:30:45.561Z,12.65
2023-05-06T04:33:12.969Z,13.23
2023-05-06T04:35:41.056Z,12.55
2023-05-06T04:38:07.670Z,12.25
2023-05-06T04:40:36.519Z,12.23
2023-05-06T04:43:03.211Z,12.02
2023-05-06T04:45:30.351Z,13.65
2023-05-06T04:47:57.039Z,14.32
2023-05-06T04:50:23.734Z,13.38
2023-05-06T04:52:50.416Z,13.10
2023-05-06T04:55:17.242Z,12.93
2023-05-06T04:57:43.915Z,12.68
2023-05-06T05:00:11.003Z,12.95
2023-05-06T05:02:37.940Z,12.25
2023-05-06T05:05:05.141Z,13.20
2023-05-06T05:07:31.826Z,13.38
2023-05-06T05:09:58.474Z,13.38
2023-05-06T05:12:25.187Z,14.25
2023-05-06T05:14:51.762Z,15.30
2023-05-06T05:17:18.341Z,16.38
2023-05-06T05:19:44.983Z,16.45
2023-05-06T05:22:11.629Z,15.52
2023-05-06T05:24:38.357Z,15.77
2023-05-06T05:27:05.027Z,17.40
2023-05-06T05:29:31.743Z,17.75
2023-05-06T05:31:58.451Z,16.92
2023-05-06T05:34:25.232Z,17.13
2023-05-06T05:36:51.987Z,16.55
2023-05-06T05:39:18.841Z,16.58
2023-05-06T05:41:45.481Z,16.15
2023-05-06T05:44:12.144Z,16.73
2023-05-06T05:46:39.331Z,16.30
2023-05-06T05:49:06.573Z,16.80
2023-05-06T05:51:33.405Z,17.52
2023-05-06T05:54:00.057Z,15.50
2023-05-06T05:56:26.679Z,16.85
2023-05-06T05:58:53.570Z,18.23
2023-05-06T06:01:20.342Z,18.48
2023-05-06T06:03:47.653Z,16.23
2023-05-06T06:06:14.491Z,17.48
2023-05-06T06:08:41.515Z,18.65
2023-05-06T06:11:08.171Z,18.55
2023-05-06T06:13:34.783Z,18.52
2023-05-06T06:16:01.524Z,17.65
2023-05-06T06:18:28.145Z,18.55
2023-05-06T06:20:54.899Z,19.42
2023-05-06T06:23:22.277Z,17.20
2023-05-06T06:25:48.989Z,16.23
2023-05-06T06:28:15.698Z,19.27
2023-05-06T06:30:42.365Z,17.38
2023-05-06T06:33:09.011Z,16.88
2023-05-06T06:35:35.734Z,16.85
2023-05-06T06:38:03.001Z,17.40
2023-05-06T06:40:29.670Z,16.90
2023-05-06T06:42:56.333Z,17.40
2023-05-06T06:45:23.510Z,17.88
2023-05-06T06:47:50.233Z,17.02
2023-05-06T06:50:16.987Z,15.07
2023-05-06T06:52:43.665Z,16.70
2023-05-06T06:55:10.944Z,18.33
2023-05-06T06:57:39.220Z,16.55
2023-05-06T07:00:06.428Z,14.93
2023-05-06T07:02:33.214Z,17.38
2023-05-06T07:04:59.869Z,15.48
2023-05-06T07:07:26.521Z,16.65
2023-05-06T07:09:53.109Z,13.75
2023-05-06T07:12:19.755Z,16.10
2023-05-06T07:14:46.853Z,16.42
2023-05-06T07:17:14.270Z,17.08
2023-05-06T07:19:40.978Z,16.27
2023-05-06T07:22:07.794Z,15.68
2023-05-06T07:24:34.409Z,15.57
2023-05-06T07:27:02.159Z,15.40
2023-05-06T07:29:28.904Z,17.27
2023-05-06T07:31:55.655Z,17.92
2023-05-06T07:34:22.406Z,16.55
2023-05-06T07:36:49.113Z,18.13
2023-05-06T07:39:15.912Z,17.02
2023-05-06T07:41:42.557Z,17.65
2023-05-06T07:44:09.294Z,19.73
2023-05-06T07:46:36.157Z,19.05
2023-05-06T07:49:04.049Z,17.98
2023-05-06T07:51:31.389Z,18.60
2023-05-06T07:53:57.985Z,19.65
2023-05-06T07:56:24.625Z,17.83
2023-05-06T07:58:51.317Z,18.55
2023-05-06T08:01:17.957Z,19.85
2023-05-06T08:03:44.835Z,19.42
2023-05-06T08:06:11.673Z,20.50
2023-05-06T08:08:38.285Z,19.23
2023-05-06T08:11:05.009Z,20.77
2023-05-06T08:13:33.463Z,20.70
2023-05-06T08:16:02.232Z,21.20
2023-05-06T08:18:29.183Z,20.02
2023-05-06T08:20:55.987Z,20.13
2023-05-06T08:23:22.716Z,22.27
2023-05-06T08:25:49.468Z,20.20
2023-05-06T08:28:16.281Z,20.95
2023-05-06T08:30:43.175Z,20.17
2023-05-06T08:33:09.840Z,21.33
2023-05-06T08:35:36.529Z,23.63
2023-05-06T08:38:03.117Z,23.13
2023-05-06T08:40:33.536Z,21.13
2023-05-06T08:43:02.724Z,22.00
2023-05-06T08:45:29.719Z,21.80
2023-05-06T08:47:56.464Z,20.77
2023-05-06T08:50:23.849Z,22.35
2023-05-06T08:52:51.090Z,21.50
2023-05-06T08:55:19.607Z,19.75
2023-05-06T08:57:47.202Z,21.00
2023-05-06T09:00:15.066Z,19.65
2023-05-06T09:02:43.424Z,20.17
2023-05-06T09:05:11.448Z,20.08
2023-05-06T09:07:38.302Z,20.20
2023-05-06T09:10:13.664Z,18.98
2023-05-06T09:12:40.613Z,18.67
2023-05-06T09:15:09.193Z,17.02
2023-05-06T09:17:36.232Z,17.98
2023-05-06T09:20:03.403Z,17.40
2023-05-06T09:22:31.309Z,17.95
2023-05-06T09:24:58.899Z,16.33
2023-05-06T09:27:31.214Z,15.13
2023-05-06T09:30:06.518Z,13.75
2023-05-06T09:32:35.229Z,13.00
2023-05-06T09:35:03.087Z,13.63
2023-05-06T09:37:29.821Z,13.57
2023-05-06T09:39:58.700Z,13.27
2023-05-06T09:42:27.826Z,11.57
2023-05-06T09:45:01.626Z,9.57
2023-05-06T09:47:34.381Z,8.95
2023-05-06T09:50:02.640Z,9.10
2023-05-06T09:52:30.225Z,8.93
2023-05-06T09:54:57.693Z,10.25
2023-05-06T09:57:25.656Z,8.48
2023-05-06T09:59:53.250Z,9.10
2023-05-06T10:02:21.141Z,7.50
2023-05-06T10:04:49.815Z,7.80
2023-05-06T10:07:22.782Z,8.02
2023-05-06T10:09:51.352Z,7.93
2023-05-06T10:12:19.876Z,9.07
2023-05-06T10:14:47.187Z,8.20
2023-05-06T10:17:14.779Z,6.93
2023-05-06T10:19:45.516Z,5.50
2023-05-06T10:22:34.116Z,5.13
2023-05-06T10:25:17.061Z,5.82
2023-05-06T10:27:45.953Z,6.00
2023-05-06T10:30:16.766Z,5.78
2023-05-06T10:32:45.342Z,5.93
2023-05-06T10:35:50.713Z,6.78
2023-05-06T10:38:26.652Z,5.35
2023-05-06T10:40:54.587Z,6.15
2023-05-06T10:43:35.037Z,5.93
2023-05-06T10:46:22.899Z,6.10
2023-05-06T10:49:04.813Z,6.18
2023-05-06T10:51:32.358Z,5.60
2023-05-06T10:54:02.836Z,5.80
2023-05-06T10:56:40.477Z,6.55
2023-05-06T10:59:08.385Z,6.25
2023-05-06T11:01:39.739Z,7.80
2023-05-06T11:04:18.617Z,6.93
2023-05-06T11:06:47.589Z,7.57
2023-05-06T11:09:21.720Z,8.35
2023-05-06T11:12:02.663Z,9.00
2023-05-06T11:14:36.918Z,9.52
2023-05-06T11:17:04.950Z,8.35
2023-05-06T11:19:33.992Z,8.20
2023-05-06T11:22:03.727Z,8.48
2023-05-06T11:24:41.611Z,8.65
2023-05-06T11:27:09.359Z,7.13
2023-05-06T11:29:37.157Z,7.57
2023-05-06T11:32:05.531Z,8.40
2023-05-06T11:34:32.860Z,7.45
2023-05-06T11:37:07.016Z,6.70
2023-05-06T11:39:40.600Z,7.18
2023-05-06T11:42:09.025Z,6.75
2023-05-06T11:44:39.681Z,7.45
2023-05-06T11:47:07.891Z,7.93
2023-05-06T11:49:42.459Z,9.32
2023-05-06T11:52:10.673Z,8.35
2023-05-06T11:54:41.826Z,7.72
2023-05-06T11:57:09.468Z,9.98
2023-05-06T11:59:38.242Z,8.93
2023-05-06T12:02:07.003Z,7.90
2023-05-06T12:04:44.570Z,3.80
2023-05-06T12:07:12.940Z,3.72
2023-05-06T12:09:45.723Z,4.88
2023-05-06T12:12:15.090Z,6.13
2023-05-06T12:14:42.194Z,5.15
2023-05-06T12:17:09.190Z,5.82
2023-05-06T12:19:36.024Z,4.78
2023-05-06T12:22:21.624Z,5.05
2023-05-06T12:24:49.563Z,7.03
2023-05-06T12:27:36.568Z,6.07
2023-05-06T12:30:04.434Z,4.93
2023-05-06T12:32:31.707Z,4.25
2023-05-06T12:34:59.498Z,4.50
2023-05-06T12:37:29.095Z,4.78
2023-05-06T12:39:58.883Z,6.30
2023-05-06T12:42:26.321Z,6.85
2023-05-06T12:44:53.014Z,7.35
2023-05-06T12:47:22.409Z,7.97
2023-05-06T12:49:58.113Z,7.68
2023-05-06T12:52:30.073Z,7.55
2023-05-06T12:54:57.292Z,7.32
2023-05-06T12:57:24.121Z,7.43
2023-05-06T12:59:50.783Z,7.38
2023-05-06T13:02:17.564Z,7.70
2023-05-06T13:04:46.628Z,7.13
2023-05-06T13:07:13.299Z,5.93
2023-05-06T13:09:39.967Z,6.47
2023-05-06T13:12:07.263Z,6.40
2023-05-06T13:14:33.910Z,6.32
2023-05-06T13:17:01.163Z,6.80
2023-05-06T13:19:32.838Z,6.63
2023-05-06T13:22:00.855Z,5.60
2023-05-06T13:24:27.986Z,5.28
2023-05-06T13:26:56.278Z,4.72
2023-05-06T13:29:23.611Z,3.58
2023-05-06T13:31:50.888Z,4.05
2023-05-06T13:34:17.674Z,4.35
2023-05-06T13:36:44.394Z,4.05
2023-05-06T13:39:11.203Z,4.72
2023-05-06T13:41:37.882Z,5.20
2023-05-06T13:44:05.005Z,4.35
2023-05-06T13:46:31.778Z,4.32
2023-05-06T13:48:58.423Z,4.47
2023-05-06T13:51:29.257Z,4.22
2023-05-06T13:53:56.065Z,4.35
2023-05-06T13:56:22.736Z,4.70
2023-05-06T13:58:49.458Z,4.93
2023-05-06T14:01:16.167Z,5.10
2023-05-06T14:03:42.835Z,5.45
2023-05-06T14:06:09.704Z,5.88
2023-05-06T14:08:36.392Z,6.07
2023-05-06T14:11:03.129Z,6.65
2023-05-06T14:13:31.765Z,6.78
2023-05-06T14:15:59.434Z,6.47
2023-05-06T14:18:27.146Z,7.05
2023-05-06T14:20:54.246Z,6.05
2023-05-06T14:23:21.089Z,6.20
2023-05-06T14:25:48.141Z,6.95
2023-05-06T14:28:15.682Z,6.28
2023-05-06T14:30:42.698Z,5.70
2023-05-06T14:33:09.940Z,6.88
2023-05-06T14:35:41.730Z,6.50
2023-05-06T14:38:08.912Z,6.07
2023-05-06T14:40:36.826Z,6.10
2023-05-06T14:43:03.626Z,4.95
2023-05-06T14:45:31.023Z,4.72
2023-05-06T14:47:57.982Z,4.80
2023-05-06T14:50:24.679Z,4.95
2023-05-06T14:52:51.348Z,4.70
2023-05-06T14:55:18.263Z,4.82
2023-05-06T14:57:44.844Z,4.72
2023-05-06T15:00:14.611Z,4.75
2023-05-06T15:02:41.796Z,4.88
2023-05-06T15:05:09.969Z,4.93
2023-05-06T15:07:37.348Z,4.72
2023-05-06T15:10:04.402Z,5.57
2023-05-06T15:12:31.204Z,5.18
2023-05-06T15:14:57.905Z,4.82
2023-05-06T15:17:24.835Z,4.43
2023-05-06T15:19:51.632Z,3.65
2023-05-06T15:22:18.411Z,4.68
2023-05-06T15:24:45.421Z,4.13
2023-05-06T15:27:12.133Z,4.03
2023-05-06T15:29:39.352Z,4.68
2023-05-06T15:32:06.428Z,4.97
2023-05-06T15:34:33.218Z,4.22
2023-05-06T15:37:02.665Z,5.30
2023-05-06T15:39:29.264Z,5.28
2023-05-06T15:41:58.942Z,5.80
2023-05-06T15:44:26.937Z,5.13
2023-05-06T15:46:53.795Z,5.30
2023-05-06T15:49:47.309Z,4.85
2023-05-06T15:52:07.200Z,4.70
2023-05-06T15:54:37.497Z,5.38
2023-05-06T15:57:05.274Z,4.75
2023-05-06T15:59:33.497Z,4.38
2023-05-06T16:04:30.058Z,4.20
2023-05-06T16:06:57.639Z,3.35
2023-05-06T16:09:24.605Z,3.85
2023-05-06T16:11:51.419Z,4.18
2023-05-06T16:14:18.084Z,3.38
2023-05-06T16:16:44.824Z,2.97
2023-05-06T16:19:11.684Z,2.88
2023-05-06T16:21:38.333Z,3.05
2023-05-06T16:24:05.195Z,2.40
2023-05-06T16:26:31.857Z,2.60
2023-05-06T16:28:59.573Z,3.17
2023-05-06T16:31:26.713Z,2.60
2023-05-06T16:33:53.665Z,3.10
2023-05-06T16:36:20.337Z,2.70
2023-05-06T16:38:47.016Z,3.47
2023-05-06T16:41:13.749Z,2.65
2023-05-06T16:43:40.932Z,2.70
2023-05-06T16:46:07.641Z,2.33
2023-05-06T16:48:34.592Z,2.40
2023-05-06T16:51:01.492Z,2.00
2023-05-06T16:53:29.433Z,2.20
2023-05-06T16:55:56.221Z,1.90
2023-05-06T16:58:23.151Z,2.22
2023-05-06T17:00:52.597Z,3.33
2023-05-06T17:03:19.447Z,2.42
2023-05-06T17:05:46.716Z,2.67
2023-05-06T17:08:13.809Z,2.20
2023-05-06T17:10:40.723Z,2.00
2023-05-06T17:13:07.433Z,2.22
2023-05-06T17:15:34.064Z,1.60
2023-05-06T17:18:00.913Z,1.92
2023-05-06T17:20:28.016Z,2.30
2023-05-06T17:22:54.711Z,1.48
2023-05-06T17:25:21.381Z,1.80
2023-05-06T17:27:48.041Z,1.50
2023-05-06T17:30:15.153Z,1.50
2023-05-06T17:32:42.478Z,2.22
2023-05-06T17:35:10.072Z,2.72
2023-05-06T17:37:36.914Z,3.20
2023-05-06T17:40:05.225Z,3.78
2023-05-06T17:42:33.490Z,4.00
2023-05-06T17:45:00.224Z,5.43
2023-05-06T17:47:29.965Z,6.93
2023-05-06T17:49:56.879Z,7.93
2023-05-06T17:52:25.934Z,8.15
2023-05-06T17:55:10.603Z,7.38
2023-05-06T17:57:37.759Z,8.40
2023-05-06T18:00:05.425Z,8.43
2023-05-06T18:02:32.140Z,8.77
2023-05-06T18:04:59.092Z,9.02
2023-05-06T18:07:25.722Z,9.13
2023-05-06T18:09:52.414Z,9.98
2023-05-06T18:12:19.654Z,9.40
2023-05-06T18:14:47.501Z,10.00
2023-05-06T18:17:14.089Z,9.57
2023-05-06T18:19:40.777Z,10.25
2023-05-06T18:22:07.484Z,9.48
2023-05-06T18:24:34.631Z,9.88
2023-05-06T18:27:02.229Z,10.40
2023-05-06T18:29:30.249Z,10.30
2023-05-06T18:31:57.577Z,10.77
2023-05-06T18:34:24.290Z,10.27
2023-05-06T18:36:51.087Z,10.68
2023-05-06T18:39:17.792Z,9.80
2023-05-06T18:41:44.503Z,10.48
2023-05-06T18:44:11.730Z,10.98
2023-05-06T18:46:38.439Z,10.50
2023-05-06T18:49:05.054Z,10.90
2023-05-06T18:51:31.959Z,10.95
2023-05-06T18:53:58.659Z,10.85
2023-05-06T18:56:25.431Z,11.73
2023-05-06T18:58:52.218Z,10.55
2023-05-06T19:01:18.993Z,10.38
2023-05-06T19:03:45.904Z,11.35
2023-05-06T19:06:12.674Z,11.45
2023-05-06T19:08:39.317Z,10.43
2023-05-06T19:11:05.950Z,10.82
2023-05-06T19:13:32.704Z,10.88
2023-05-06T19:15:59.322Z,11.38
2023-05-06T19:18:25.977Z,10.95
2023-05-06T19:20:53.539Z,11.25
2023-05-06T19:23:21.389Z,11.73
2023-05-06T19:25:48.010Z,12.38
2023-05-06T19:28:14.695Z,12.27
2023-05-06T19:30:41.421Z,12.95
2023-05-06T19:33:08.295Z,12.70
2023-05-06T19:35:38.639Z,12.80
2023-05-06T19:38:09.092Z,14.02
2023-05-06T19:40:35.859Z,14.30
2023-05-06T19:43:03.927Z,13.65
2023-05-06T19:45:32.444Z,14.52
2023-05-06T19:48:00.109Z,15.00
2023-05-06T19:50:32.667Z,14.93
2023-05-06T19:52:59.401Z,14.88
2023-05-06T19:55:26.621Z,15.40
2023-05-06T19:57:56.328Z,15.45
2023-05-06T20:00:24.682Z,16.33
2023-05-06T20:02:51.356Z,16.05
2023-05-06T20:05:18.236Z,15.40
2023-05-06T20:07:44.889Z,16.88
2023-05-06T20:10:13.396Z,15.88
2023-05-06T20:12:43.604Z,16.83
2023-05-06T20:15:10.808Z,15.82
2023-05-06T20:17:37.586Z,16.63
2023-05-06T20:20:09.612Z,17.38
2023-05-06T20:22:37.669Z,16.85
2023-05-06T20:25:23.119Z,17.15
2023-05-06T20:27:49.719Z,17.10
2023-05-06T20:30:16.432Z,18.08
2023-05-06T20:32:43.118Z,16.60
2023-05-06T20:35:10.123Z,17.88
2023-05-06T20:37:37.044Z,18.17
2023-05-06T20:40:06.558Z,18.33
2023-05-06T20:42:33.521Z,19.95
2023-05-06T20:45:00.393Z,18.83
2023-05-06T20:47:27.722Z,18.50
2023-05-06T20:49:55.116Z,18.38
2023-05-06T20:52:22.061Z,17.38
2023-05-06T20:54:49.135Z,20.00
2023-05-06T20:57:16.848Z,20.38
2023-05-06T20:59:43.976Z,19.17
2023-05-06T21:02:10.923Z,19.52
2023-05-06T21:04:37.772Z,19.38
2023-05-06T21:07:04.488Z,19.20
2023-05-06T21:09:31.139Z,17.17
2023-05-06T21:11:58.791Z,17.75
2023-05-06T21:14:26.940Z,20.35
2023-05-06T21:16:53.971Z,19.38
2023-05-06T21:19:20.994Z,19.60
2023-05-06T21:21:48.283Z,20.35
2023-05-06T21:24:15.108Z,19.67
2023-05-06T21:26:41.782Z,19.25
2023-05-06T21:29:08.545Z,20.25
2023-05-06T21:31:35.400Z,21.02
2023-05-06T21:34:03.376Z,21.30
2023-05-06T21:36:30.068Z,19.20
2023-05-06T21:39:05.772Z,20.00
2023-05-06T21:41:35.329Z,21.30
2023-05-06T21:44:06.159Z,18.23
2023-05-06T21:46:33.403Z,21.20
2023-05-06T21:49:00.592Z,20.65
2023-05-06T21:51:28.441Z,19.88
2023-05-06T21:53:55.344Z,20.52
2023-05-06T21:56:22.203Z,20.15
2023-05-06T21:58:48.917Z,19.17
2023-05-06T22:01:15.879Z,20.88
2023-05-06T22:03:43.707Z,22.50
2023-05-06T22:06:10.742Z,20.38
2023-05-06T22:08:37.356Z,20.85
2023-05-06T22:11:04.035Z,18.85
2023-05-06T22:13:31.100Z,19.48
2023-05-06T22:15:58.048Z,18.92
2023-05-06T22:18:25.663Z,20.17
2023-05-06T22:20:56.499Z,21.30
2023-05-06T22:23:24.303Z,21.98
2023-05-06T22:25:54.096Z,21.70
2023-05-06T22:28:20.715Z,24.50
2023-05-06T22:30:47.430Z,22.67
2023-05-06T22:33:14.103Z,21.50
2023-05-06T22:35:40.976Z,20.85
2023-05-06T22:38:08.528Z,21.77
2023-05-06T22:40:35.270Z,21.80
2023-05-06T22:43:01.927Z,20.95
2023-05-06T22:45:28.682Z,20.15
2023-05-06T22:47:56.010Z,21.40
2023-05-06T22:50:22.711Z,21.35
2023-05-06T22:52:49.426Z,22.05
2023-05-06T22:55:16.461Z,22.10
2023-05-06T22:57:43.224Z,19.70
2023-05-06T23:00:12.384Z,18.88
2023-05-06T23:02:39.742Z,21.35
2023-05-06T23:05:06.554Z,21.15
2023-05-06T23:07:33.307Z,20.27
2023-05-06T23:10:00.178Z,20.52
2023-05-06T23:12:28.013Z,20.73
2023-05-06T23:14:54.718Z,20.45
2023-05-06T23:17:21.365Z,19.92
2023-05-06T23:19:48.018Z,20.60
2023-05-06T23:22:14.669Z,21.23
2023-05-06T23:24:42.165Z,20.52
2023-05-06T23:27:08.993Z,18.77
2023-05-06T23:29:35.619Z,19.08
2023-05-06T23:32:02.846Z,20.55
2023-05-06T23:34:29.445Z,18.95
2023-05-06T23:36:56.520Z,18.98
2023-05-06T23:39:23.171Z,20.67
2023-05-06T23:41:49.828Z,19.15
2023-05-06T23:44:16.688Z,20.17
2023-05-06T23:46:43.451Z,19.27
2023-05-06T23:49:10.157Z,20.17
2023-05-06T23:51:37.263Z,18.30
2023-05-06T23:54:04.019Z,18.60
2023-05-06T23:56:30.703Z,18.48
2023-05-06T23:58:57.378Z,17.63
